sensor_id;sensor_type;location;lat;lon;timestamp;P1;durP1;ratioP1;P2;durP2;ratioP2
20832;SDS011;56075;51.264;7.150;2023-03-13T00:02:16;14.70;;;2.08;;
20832;SDS011;56075;51.264;7.150;2023-03-13T00:04:48;16.85;;;2.20;;
20832;SDS011;56075;51.264;7.150;2023-03-13T00:07:19;12.70;;;2.38;;
20832;SDS011;56075;51.264;7.150;2023-03-13T00:09:50;11.02;;;2.13;;
20832;SDS011;56075;51.264;7.150;2023-03-13T00:12:21;17.85;;;2.25;;
20832;SDS011;56075;51.264;7.150;2023-03-13T00:14:52;17.52;;;2.60;;
20832;SDS011;56075;51.264;7.150;2023-03-13T00:17:23;16.60;;;2.40;;
20832;SDS011;56075;51.264;7.150;2023-03-13T00:19:55;12.98;;;1.83;;
20832;SDS011;56075;51.264;7.150;2023-03-13T00:22:26;11.68;;;2.33;;
20832;SDS011;56075;51.264;7.150;2023-03-13T00:24:57;13.98;;;2.28;;
20832;SDS011;56075;51.264;7.150;2023-03-13T00:27:31;16.13;;;2.22;;
20832;SDS011;56075;51.264;7.150;2023-03-13T00:30:04;15.40;;;2.47;;
20832;SDS011;56075;51.264;7.150;2023-03-13T00:32:39;19.15;;;2.40;;
20832;SDS011;56075;51.264;7.150;2023-03-13T00:35:12;15.70;;;2.30;;
20832;SDS011;56075;51.264;7.150;2023-03-13T00:37:43;11.27;;;1.90;;
20832;SDS011;56075;51.264;7.150;2023-03-13T00:40:14;20.65;;;2.28;;
20832;SDS011;56075;51.264;7.150;2023-03-13T00:42:45;15.43;;;2.05;;
20832;SDS011;56075;51.264;7.150;2023-03-13T00:45:16;21.02;;;2.35;;
20832;SDS011;56075;51.264;7.150;2023-03-13T00:47:47;11.65;;;1.90;;
20832;SDS011;56075;51.264;7.150;2023-03-13T00:50:19;16.45;;;2.00;;
20832;SDS011;56075;51.264;7.150;2023-03-13T00:52:50;13.40;;;2.47;;
20832;SDS011;56075;51.264;7.150;2023-03-13T00:55:21;13.00;;;2.17;;
20832;SDS011;56075;51.264;7.150;2023-03-13T00:57:53;15.93;;;2.13;;
20832;SDS011;56075;51.264;7.150;2023-03-13T01:00:24;11.55;;;1.90;;
20832;SDS011;56075;51.264;7.150;2023-03-13T01:02:56;10.20;;;1.92;;
20832;SDS011;56075;51.264;7.150;2023-03-13T01:05:27;16.85;;;2.90;;
20832;SDS011;56075;51.264;7.150;2023-03-13T01:07:58;15.77;;;2.17;;
20832;SDS011;56075;51.264;7.150;2023-03-13T01:10:29;13.23;;;2.00;;
20832;SDS011;56075;51.264;7.150;2023-03-13T01:13:00;14.00;;;1.65;;
20832;SDS011;56075;51.264;7.150;2023-03-13T01:15:35;12.20;;;1.88;;
20832;SDS011;56075;51.264;7.150;2023-03-13T01:18:06;11.77;;;2.05;;
20832;SDS011;56075;51.264;7.150;2023-03-13T01:20:37;13.57;;;2.00;;
20832;SDS011;56075;51.264;7.150;2023-03-13T01:23:10;17.83;;;2.37;;
20832;SDS011;56075;51.264;7.150;2023-03-13T01:25:41;18.40;;;2.50;;
20832;SDS011;56075;51.264;7.150;2023-03-13T01:28:12;17.98;;;2.40;;
20832;SDS011;56075;51.264;7.150;2023-03-13T01:30:43;14.35;;;2.03;;
20832;SDS011;56075;51.264;7.150;2023-03-13T01:33:15;16.40;;;2.40;;
20832;SDS011;56075;51.264;7.150;2023-03-13T01:35:46;13.98;;;1.95;;
20832;SDS011;56075;51.264;7.150;2023-03-13T01:38:17;15.23;;;2.38;;
20832;SDS011;56075;51.264;7.150;2023-03-13T01:40:48;14.27;;;2.20;;
20832;SDS011;56075;51.264;7.150;2023-03-13T01:43:27;20.52;;;2.35;;
20832;SDS011;56075;51.264;7.150;2023-03-13T01:46:16;13.70;;;2.45;;
20832;SDS011;56075;51.264;7.150;2023-03-13T01:49:13;9.03;;;1.77;;
20832;SDS011;56075;51.264;7.150;2023-03-13T01:52:13;11.63;;;1.97;;
20832;SDS011;56075;51.264;7.150;2023-03-13T01:54:59;13.80;;;2.20;;
20832;SDS011;56075;51.264;7.150;2023-03-13T01:57:36;17.97;;;2.17;;
20832;SDS011;56075;51.264;7.150;2023-03-13T02:00:19;17.63;;;2.17;;
20832;SDS011;56075;51.264;7.150;2023-03-13T02:02:54;16.40;;;2.47;;
20832;SDS011;56075;51.264;7.150;2023-03-13T02:05:29;11.05;;;1.88;;
20832;SDS011;56075;51.264;7.150;2023-03-13T02:10:38;14.03;;;2.47;;
20832;SDS011;56075;51.264;7.150;2023-03-13T02:13:14;13.73;;;2.67;;
20832;SDS011;56075;51.264;7.150;2023-03-13T02:15:47;15.63;;;2.60;;
20832;SDS011;56075;51.264;7.150;2023-03-13T02:18:20;18.37;;;2.90;;
20832;SDS011;56075;51.264;7.150;2023-03-13T02:20:52;21.92;;;2.55;;
20832;SDS011;56075;51.264;7.150;2023-03-13T02:23:34;15.65;;;2.30;;
20832;SDS011;56075;51.264;7.150;2023-03-13T02:26:14;15.05;;;2.53;;
20832;SDS011;56075;51.264;7.150;2023-03-13T02:28:46;16.07;;;2.37;;
20832;SDS011;56075;51.264;7.150;2023-03-13T02:31:20;25.50;;;2.60;;
20832;SDS011;56075;51.264;7.150;2023-03-13T02:33:51;15.03;;;2.30;;
20832;SDS011;56075;51.264;7.150;2023-03-13T02:36:24;23.95;;;2.80;;
20832;SDS011;56075;51.264;7.150;2023-03-13T02:38:58;17.30;;;2.92;;
20832;SDS011;56075;51.264;7.150;2023-03-13T02:41:33;14.95;;;2.60;;
20832;SDS011;56075;51.264;7.150;2023-03-13T02:44:05;18.67;;;2.50;;
20832;SDS011;56075;51.264;7.150;2023-03-13T02:46:46;19.45;;;2.42;;
20832;SDS011;56075;51.264;7.150;2023-03-13T02:49:26;18.83;;;2.20;;
20832;SDS011;56075;51.264;7.150;2023-03-13T02:52:05;16.80;;;2.23;;
20832;SDS011;56075;51.264;7.150;2023-03-13T02:54:46;14.73;;;2.30;;
20832;SDS011;56075;51.264;7.150;2023-03-13T02:57:21;18.13;;;2.37;;
20832;SDS011;56075;51.264;7.150;2023-03-13T02:59:52;17.23;;;3.00;;
20832;SDS011;56075;51.264;7.150;2023-03-13T03:02:23;17.50;;;2.10;;
20832;SDS011;56075;51.264;7.150;2023-03-13T03:04:54;12.47;;;2.30;;
20832;SDS011;56075;51.264;7.150;2023-03-13T03:07:25;20.47;;;2.90;;
20832;SDS011;56075;51.264;7.150;2023-03-13T03:09:57;14.33;;;2.00;;
20832;SDS011;56075;51.264;7.150;2023-03-13T03:12:28;14.10;;;2.17;;
20832;SDS011;56075;51.264;7.150;2023-03-13T03:14:59;12.83;;;1.90;;
20832;SDS011;56075;51.264;7.150;2023-03-13T03:17:31;8.37;;;1.73;;
20832;SDS011;56075;51.264;7.150;2023-03-13T03:20:02;9.03;;;1.87;;
20832;SDS011;56075;51.264;7.150;2023-03-13T03:22:38;12.80;;;2.00;;
20832;SDS011;56075;51.264;7.150;2023-03-13T03:25:10;13.05;;;2.42;;
20832;SDS011;56075;51.264;7.150;2023-03-13T03:27:41;10.35;;;2.00;;
20832;SDS011;56075;51.264;7.150;2023-03-13T03:30:13;17.92;;;2.10;;
20832;SDS011;56075;51.264;7.150;2023-03-13T03:32:44;8.75;;;1.63;;
20832;SDS011;56075;51.264;7.150;2023-03-13T03:35:16;9.70;;;2.00;;
20832;SDS011;56075;51.264;7.150;2023-03-13T03:37:47;9.02;;;1.98;;
20832;SDS011;56075;51.264;7.150;2023-03-13T03:40:18;11.43;;;1.75;;
20832;SDS011;56075;51.264;7.150;2023-03-13T03:42:51;4.95;;;1.35;;
20832;SDS011;56075;51.264;7.150;2023-03-13T03:45:22;12.03;;;1.70;;
20832;SDS011;56075;51.264;7.150;2023-03-13T03:47:53;5.17;;;1.30;;
20832;SDS011;56075;51.264;7.150;2023-03-13T03:50:25;9.82;;;1.60;;
20832;SDS011;56075;51.264;7.150;2023-03-13T03:53:02;8.63;;;1.10;;
20832;SDS011;56075;51.264;7.150;2023-03-13T03:55:33;6.37;;;1.10;;
20832;SDS011;56075;51.264;7.150;2023-03-13T03:58:05;5.65;;;1.20;;
20832;SDS011;56075;51.264;7.150;2023-03-13T04:00:55;5.20;;;1.30;;
20832;SDS011;56075;51.264;7.150;2023-03-13T04:03:27;5.50;;;1.20;;
20832;SDS011;56075;51.264;7.150;2023-03-13T04:05:59;7.78;;;1.05;;
20832;SDS011;56075;51.264;7.150;2023-03-13T04:08:30;7.25;;;1.10;;
20832;SDS011;56075;51.264;7.150;2023-03-13T04:11:01;6.10;;;1.23;;
20832;SDS011;56075;51.264;7.150;2023-03-13T04:13:37;4.88;;;1.05;;
20832;SDS011;56075;51.264;7.150;2023-03-13T04:16:08;4.25;;;0.88;;
20832;SDS011;56075;51.264;7.150;2023-03-13T04:18:40;6.30;;;1.10;;
20832;SDS011;56075;51.264;7.150;2023-03-13T04:21:11;4.68;;;1.13;;
20832;SDS011;56075;51.264;7.150;2023-03-13T04:23:53;2.80;;;0.70;;
20832;SDS011;56075;51.264;7.150;2023-03-13T04:26:25;6.25;;;1.00;;
20832;SDS011;56075;51.264;7.150;2023-03-13T04:28:58;4.43;;;0.98;;
20832;SDS011;56075;51.264;7.150;2023-03-13T04:31:59;3.45;;;1.13;;
20832;SDS011;56075;51.264;7.150;2023-03-13T04:34:53;3.20;;;0.90;;
20832;SDS011;56075;51.264;7.150;2023-03-13T04:37:38;4.75;;;0.95;;
20832;SDS011;56075;51.264;7.150;2023-03-13T04:40:48;2.88;;;1.10;;
20832;SDS011;56075;51.264;7.150;2023-03-13T04:43:45;2.53;;;0.90;;
20832;SDS011;56075;51.264;7.150;2023-03-13T04:46:43;2.85;;;0.80;;
20832;SDS011;56075;51.264;7.150;2023-03-13T04:49:17;3.42;;;1.00;;
20832;SDS011;56075;51.264;7.150;2023-03-13T04:51:57;3.80;;;1.00;;
20832;SDS011;56075;51.264;7.150;2023-03-13T04:54:55;5.40;;;1.00;;
20832;SDS011;56075;51.264;7.150;2023-03-13T04:57:46;5.93;;;1.00;;
20832;SDS011;56075;51.264;7.150;2023-03-13T05:00:38;2.65;;;0.98;;
20832;SDS011;56075;51.264;7.150;2023-03-13T05:03:27;3.42;;;0.70;;
20832;SDS011;56075;51.264;7.150;2023-03-13T05:06:16;2.83;;;1.00;;
20832;SDS011;56075;51.264;7.150;2023-03-13T05:09:06;2.05;;;0.95;;
20832;SDS011;56075;51.264;7.150;2023-03-13T05:11:55;1.63;;;0.80;;
20832;SDS011;56075;51.264;7.150;2023-03-13T05:14:33;5.13;;;1.00;;
20832;SDS011;56075;51.264;7.150;2023-03-13T05:17:16;2.03;;;0.88;;
20832;SDS011;56075;51.264;7.150;2023-03-13T05:20:17;0.95;;;0.50;;
20832;SDS011;56075;51.264;7.150;2023-03-13T05:23:10;2.13;;;0.90;;
20832;SDS011;56075;51.264;7.150;2023-03-13T05:26:04;2.28;;;0.82;;
20832;SDS011;56075;51.264;7.150;2023-03-13T05:28:46;1.98;;;0.80;;
20832;SDS011;56075;51.264;7.150;2023-03-13T05:31:38;2.17;;;0.93;;
20832;SDS011;56075;51.264;7.150;2023-03-13T05:34:17;3.35;;;0.70;;
20832;SDS011;56075;51.264;7.150;2023-03-13T05:37:10;2.90;;;0.95;;
20832;SDS011;56075;51.264;7.150;2023-03-13T05:40:05;1.33;;;0.77;;
20832;SDS011;56075;51.264;7.150;2023-03-13T05:42:48;2.30;;;0.90;;
20832;SDS011;56075;51.264;7.150;2023-03-13T05:45:19;3.92;;;1.00;;
20832;SDS011;56075;51.264;7.150;2023-03-13T05:48:14;4.75;;;1.00;;
20832;SDS011;56075;51.264;7.150;2023-03-13T05:51:04;2.63;;;1.15;;
20832;SDS011;56075;51.264;7.150;2023-03-13T05:53:51;1.65;;;0.85;;
20832;SDS011;56075;51.264;7.150;2023-03-13T05:56:43;3.03;;;0.88;;
20832;SDS011;56075;51.264;7.150;2023-03-13T05:59:26;1.65;;;0.95;;
20832;SDS011;56075;51.264;7.150;2023-03-13T06:02:15;6.00;;;1.38;;
20832;SDS011;56075;51.264;7.150;2023-03-13T06:04:49;1.98;;;1.23;;
20832;SDS011;56075;51.264;7.150;2023-03-13T06:07:21;2.63;;;1.35;;
20832;SDS011;56075;51.264;7.150;2023-03-13T06:09:52;4.40;;;1.27;;
20832;SDS011;56075;51.264;7.150;2023-03-13T06:12:23;1.40;;;0.90;;
20832;SDS011;56075;51.264;7.150;2023-03-13T06:14:55;2.10;;;0.95;;
20832;SDS011;56075;51.264;7.150;2023-03-13T06:17:32;2.22;;;0.70;;
20832;SDS011;56075;51.264;7.150;2023-03-13T06:20:03;1.77;;;0.85;;
20832;SDS011;56075;51.264;7.150;2023-03-13T06:22:35;2.05;;;0.90;;
20832;SDS011;56075;51.264;7.150;2023-03-13T06:25:06;2.25;;;0.82;;
20832;SDS011;56075;51.264;7.150;2023-03-13T06:27:39;1.92;;;0.82;;
20832;SDS011;56075;51.264;7.150;2023-03-13T06:30:11;1.88;;;0.80;;
20832;SDS011;56075;51.264;7.150;2023-03-13T06:32:42;1.92;;;0.90;;
20832;SDS011;56075;51.264;7.150;2023-03-13T06:35:13;1.95;;;1.10;;
20832;SDS011;56075;51.264;7.150;2023-03-13T06:37:44;2.15;;;0.80;;
20832;SDS011;56075;51.264;7.150;2023-03-13T06:40:15;3.30;;;0.80;;
20832;SDS011;56075;51.264;7.150;2023-03-13T06:42:47;2.25;;;0.73;;
20832;SDS011;56075;51.264;7.150;2023-03-13T06:45:18;2.00;;;0.90;;
20832;SDS011;56075;51.264;7.150;2023-03-13T06:47:49;1.95;;;0.82;;
20832;SDS011;56075;51.264;7.150;2023-03-13T06:50:21;3.38;;;1.23;;
20832;SDS011;56075;51.264;7.150;2023-03-13T06:52:53;1.50;;;0.90;;
20832;SDS011;56075;51.264;7.150;2023-03-13T06:55:24;1.83;;;0.90;;
20832;SDS011;56075;51.264;7.150;2023-03-13T06:57:55;1.80;;;0.98;;
20832;SDS011;56075;51.264;7.150;2023-03-13T07:00:26;3.83;;;1.00;;
20832;SDS011;56075;51.264;7.150;2023-03-13T07:02:58;2.58;;;1.10;;
20832;SDS011;56075;51.264;7.150;2023-03-13T07:05:29;1.45;;;0.85;;
20832;SDS011;56075;51.264;7.150;2023-03-13T07:08:00;1.77;;;1.05;;
20832;SDS011;56075;51.264;7.150;2023-03-13T07:10:31;2.15;;;1.10;;
20832;SDS011;56075;51.264;7.150;2023-03-13T07:13:02;2.28;;;0.95;;
20832;SDS011;56075;51.264;7.150;2023-03-13T07:15:33;3.05;;;1.00;;
20832;SDS011;56075;51.264;7.150;2023-03-13T07:18:04;3.10;;;1.02;;
20832;SDS011;56075;51.264;7.150;2023-03-13T07:20:35;2.97;;;1.20;;
20832;SDS011;56075;51.264;7.150;2023-03-13T07:23:07;1.65;;;0.90;;
20832;SDS011;56075;51.264;7.150;2023-03-13T07:25:38;3.72;;;1.02;;
20832;SDS011;56075;51.264;7.150;2023-03-13T07:28:09;2.17;;;1.15;;
20832;SDS011;56075;51.264;7.150;2023-03-13T07:30:40;3.65;;;1.10;;
20832;SDS011;56075;51.264;7.150;2023-03-13T07:33:11;2.60;;;1.10;;
20832;SDS011;56075;51.264;7.150;2023-03-13T07:35:51;2.33;;;1.10;;
20832;SDS011;56075;51.264;7.150;2023-03-13T07:38:22;4.22;;;1.23;;
20832;SDS011;56075;51.264;7.150;2023-03-13T07:40:54;3.72;;;1.38;;
20832;SDS011;56075;51.264;7.150;2023-03-13T07:43:27;4.28;;;1.20;;
20832;SDS011;56075;51.264;7.150;2023-03-13T07:46:00;3.20;;;1.20;;
20832;SDS011;56075;51.264;7.150;2023-03-13T07:48:34;2.80;;;1.10;;
20832;SDS011;56075;51.264;7.150;2023-03-13T07:51:09;3.13;;;1.30;;
20832;SDS011;56075;51.264;7.150;2023-03-13T07:53:50;2.88;;;1.40;;
20832;SDS011;56075;51.264;7.150;2023-03-13T07:56:22;4.50;;;1.35;;
20832;SDS011;56075;51.264;7.150;2023-03-13T07:58:53;4.32;;;1.30;;
20832;SDS011;56075;51.264;7.150;2023-03-13T08:01:25;6.57;;;1.30;;
20832;SDS011;56075;51.264;7.150;2023-03-13T08:03:57;5.60;;;1.40;;
20832;SDS011;56075;51.264;7.150;2023-03-13T08:06:31;2.67;;;1.20;;
20832;SDS011;56075;51.264;7.150;2023-03-13T08:09:05;2.72;;;1.50;;
20832;SDS011;56075;51.264;7.150;2023-03-13T08:11:37;3.35;;;1.40;;
20832;SDS011;56075;51.264;7.150;2023-03-13T08:14:10;5.72;;;1.60;;
20832;SDS011;56075;51.264;7.150;2023-03-13T08:16:41;5.00;;;1.40;;
20832;SDS011;56075;51.264;7.150;2023-03-13T08:19:12;2.38;;;1.30;;
20832;SDS011;56075;51.264;7.150;2023-03-13T08:21:43;2.78;;;1.40;;
20832;SDS011;56075;51.264;7.150;2023-03-13T08:24:15;2.95;;;1.23;;
20832;SDS011;56075;51.264;7.150;2023-03-13T08:26:46;4.38;;;1.42;;
20832;SDS011;56075;51.264;7.150;2023-03-13T08:29:17;7.13;;;1.95;;
20832;SDS011;56075;51.264;7.150;2023-03-13T08:31:49;3.25;;;1.20;;
20832;SDS011;56075;51.264;7.150;2023-03-13T08:34:22;3.83;;;1.63;;
20832;SDS011;56075;51.264;7.150;2023-03-13T08:36:53;4.25;;;1.30;;
20832;SDS011;56075;51.264;7.150;2023-03-13T08:39:27;7.38;;;1.65;;
20832;SDS011;56075;51.264;7.150;2023-03-13T08:41:58;4.43;;;1.20;;
20832;SDS011;56075;51.264;7.150;2023-03-13T08:44:29;7.05;;;1.70;;
20832;SDS011;56075;51.264;7.150;2023-03-13T08:47:00;7.97;;;1.50;;
20832;SDS011;56075;51.264;7.150;2023-03-13T08:49:31;3.85;;;1.50;;
20832;SDS011;56075;51.264;7.150;2023-03-13T08:52:03;3.55;;;1.50;;
20832;SDS011;56075;51.264;7.150;2023-03-13T08:54:35;2.78;;;1.60;;
20832;SDS011;56075;51.264;7.150;2023-03-13T08:57:06;5.65;;;1.63;;
20832;SDS011;56075;51.264;7.150;2023-03-13T08:59:38;7.85;;;1.80;;
20832;SDS011;56075;51.264;7.150;2023-03-13T09:02:09;6.20;;;2.00;;
20832;SDS011;56075;51.264;7.150;2023-03-13T09:04:40;6.47;;;1.60;;
20832;SDS011;56075;51.264;7.150;2023-03-13T09:07:11;6.70;;;1.90;;
20832;SDS011;56075;51.264;7.150;2023-03-13T09:09:42;7.80;;;1.80;;
20832;SDS011;56075;51.264;7.150;2023-03-13T09:12:13;3.47;;;1.75;;
20832;SDS011;56075;51.264;7.150;2023-03-13T09:14:45;5.03;;;2.03;;
20832;SDS011;56075;51.264;7.150;2023-03-13T09:17:17;4.13;;;1.80;;
20832;SDS011;56075;51.264;7.150;2023-03-13T09:19:48;7.38;;;1.90;;
20832;SDS011;56075;51.264;7.150;2023-03-13T09:22:19;5.07;;;1.67;;
20832;SDS011;56075;51.264;7.150;2023-03-13T09:24:50;5.72;;;1.70;;
20832;SDS011;56075;51.264;7.150;2023-03-13T09:27:21;4.05;;;1.70;;
20832;SDS011;56075;51.264;7.150;2023-03-13T09:29:53;5.18;;;1.50;;
20832;SDS011;56075;51.264;7.150;2023-03-13T09:32:24;3.20;;;1.45;;
20832;SDS011;56075;51.264;7.150;2023-03-13T09:34:55;7.55;;;1.55;;
20832;SDS011;56075;51.264;7.150;2023-03-13T09:37:26;4.78;;;1.77;;
20832;SDS011;56075;51.264;7.150;2023-03-13T09:39:57;6.03;;;1.70;;
20832;SDS011;56075;51.264;7.150;2023-03-13T09:42:34;4.80;;;1.55;;
20832;SDS011;56075;51.264;7.150;2023-03-13T09:45:28;4.75;;;1.63;;
20832;SDS011;56075;51.264;7.150;2023-03-13T09:48:07;5.30;;;1.67;;
20832;SDS011;56075;51.264;7.150;2023-03-13T09:53:58;4.47;;;1.80;;
20832;SDS011;56075;51.264;7.150;2023-03-13T09:56:44;5.03;;;2.03;;
20832;SDS011;56075;51.264;7.150;2023-03-13T10:02:23;4.80;;;1.90;;
20832;SDS011;56075;51.264;7.150;2023-03-13T10:05:05;4.72;;;1.73;;
20832;SDS011;56075;51.264;7.150;2023-03-13T10:07:50;4.38;;;1.60;;
20832;SDS011;56075;51.264;7.150;2023-03-13T10:10:38;3.83;;;1.50;;
20832;SDS011;56075;51.264;7.150;2023-03-13T10:16:13;4.57;;;1.52;;
20832;SDS011;56075;51.264;7.150;2023-03-13T10:18:57;3.55;;;1.40;;
20832;SDS011;56075;51.264;7.150;2023-03-13T10:21:33;10.95;;;1.67;;
20832;SDS011;56075;51.264;7.150;2023-03-13T10:26:37;3.22;;;1.20;;
20832;SDS011;56075;51.264;7.150;2023-03-13T10:29:25;3.20;;;1.20;;
20832;SDS011;56075;51.264;7.150;2023-03-13T10:31:58;2.47;;;1.15;;
20832;SDS011;56075;51.264;7.150;2023-03-13T10:34:54;3.95;;;1.35;;
20832;SDS011;56075;51.264;7.150;2023-03-13T10:37:31;4.78;;;1.30;;
20832;SDS011;56075;51.264;7.150;2023-03-13T10:40:18;2.90;;;1.00;;
20832;SDS011;56075;51.264;7.150;2023-03-13T10:42:59;1.60;;;1.00;;
20832;SDS011;56075;51.264;7.150;2023-03-13T10:45:45;3.58;;;1.10;;
20832;SDS011;56075;51.264;7.150;2023-03-13T10:48:18;4.25;;;1.17;;
20832;SDS011;56075;51.264;7.150;2023-03-13T10:50:54;3.10;;;1.20;;
20832;SDS011;56075;51.264;7.150;2023-03-13T10:56:13;3.17;;;1.10;;
20832;SDS011;56075;51.264;7.150;2023-03-13T10:58:51;2.78;;;1.02;;
20832;SDS011;56075;51.264;7.150;2023-03-13T11:01:24;3.40;;;1.00;;
20832;SDS011;56075;51.264;7.150;2023-03-13T11:03:58;3.95;;;0.90;;
20832;SDS011;56075;51.264;7.150;2023-03-13T11:06:50;1.52;;;0.82;;
20832;SDS011;56075;51.264;7.150;2023-03-13T11:09:22;3.83;;;1.00;;
20832;SDS011;56075;51.264;7.150;2023-03-13T11:12:00;3.25;;;1.00;;
20832;SDS011;56075;51.264;7.150;2023-03-13T11:14:35;2.78;;;1.00;;
20832;SDS011;56075;51.264;7.150;2023-03-13T11:20:21;2.85;;;1.08;;
20832;SDS011;56075;51.264;7.150;2023-03-13T11:28:47;3.53;;;0.70;;
20832;SDS011;56075;51.264;7.150;2023-03-13T11:31:39;1.75;;;1.00;;
20832;SDS011;56075;51.264;7.150;2023-03-13T11:34:19;2.90;;;1.05;;
20832;SDS011;56075;51.264;7.150;2023-03-13T11:51:02;3.45;;;0.90;;
20832;SDS011;56075;51.264;7.150;2023-03-13T11:56:43;2.65;;;0.93;;
20832;SDS011;56075;51.264;7.150;2023-03-13T12:02:44;1.83;;;0.73;;
20832;SDS011;56075;51.264;7.150;2023-03-13T12:05:21;3.67;;;0.65;;
20832;SDS011;56075;51.264;7.150;2023-03-13T12:08:01;3.05;;;0.70;;
20832;SDS011;56075;51.264;7.150;2023-03-13T12:10:43;3.80;;;0.70;;
20832;SDS011;56075;51.264;7.150;2023-03-13T12:13:31;1.73;;;0.70;;
20832;SDS011;56075;51.264;7.150;2023-03-13T12:16:15;3.20;;;0.65;;
20832;SDS011;56075;51.264;7.150;2023-03-13T12:18:50;1.90;;;0.70;;
20832;SDS011;56075;51.264;7.150;2023-03-13T12:26:58;0.95;;;0.45;;
20832;SDS011;56075;51.264;7.150;2023-03-13T12:29:39;0.68;;;0.40;;
20832;SDS011;56075;51.264;7.150;2023-03-13T12:32:35;1.20;;;0.60;;
20832;SDS011;56075;51.264;7.150;2023-03-13T12:35:29;1.13;;;0.30;;
20832;SDS011;56075;51.264;7.150;2023-03-13T12:43:43;4.32;;;0.60;;
20832;SDS011;56075;51.264;7.150;2023-03-13T12:51:47;5.22;;;0.68;;
20832;SDS011;56075;51.264;7.150;2023-03-13T12:54:31;2.90;;;0.70;;
20832;SDS011;56075;51.264;7.150;2023-03-13T13:00:12;0.88;;;0.50;;
20832;SDS011;56075;51.264;7.150;2023-03-13T13:08:33;3.13;;;0.68;;
20832;SDS011;56075;51.264;7.150;2023-03-13T13:20:24;1.75;;;0.60;;
20832;SDS011;56075;51.264;7.150;2023-03-13T13:25:51;2.58;;;0.75;;
20832;SDS011;56075;51.264;7.150;2023-03-13T13:28:25;4.78;;;0.65;;
20832;SDS011;56075;51.264;7.150;2023-03-13T13:31:04;3.95;;;0.77;;
20832;SDS011;56075;51.264;7.150;2023-03-13T13:37:24;4.15;;;0.60;;
20832;SDS011;56075;51.264;7.150;2023-03-13T13:39:53;6.22;;;0.70;;
20832;SDS011;56075;51.264;7.150;2023-03-13T13:42:45;2.00;;;0.70;;
20832;SDS011;56075;51.264;7.150;2023-03-13T13:45:28;2.50;;;0.77;;
20832;SDS011;56075;51.264;7.150;2023-03-13T14:04:46;1.60;;;0.57;;
20832;SDS011;56075;51.264;7.150;2023-03-13T14:07:29;2.67;;;0.70;;
20832;SDS011;56075;51.264;7.150;2023-03-13T14:10:32;2.47;;;0.77;;
20832;SDS011;56075;51.264;7.150;2023-03-13T14:15:49;3.15;;;0.70;;
20832;SDS011;56075;51.264;7.150;2023-03-13T14:18:25;3.35;;;0.60;;
20832;SDS011;56075;51.264;7.150;2023-03-13T14:20:59;3.42;;;0.80;;
20832;SDS011;56075;51.264;7.150;2023-03-13T14:23:44;0.98;;;0.57;;
20832;SDS011;56075;51.264;7.150;2023-03-13T14:26:20;1.30;;;0.60;;
20832;SDS011;56075;51.264;7.150;2023-03-13T14:28:54;10.10;;;0.60;;
20832;SDS011;56075;51.264;7.150;2023-03-13T14:31:28;0.82;;;0.57;;
20832;SDS011;56075;51.264;7.150;2023-03-13T14:34:06;4.90;;;0.65;;
20832;SDS011;56075;51.264;7.150;2023-03-13T14:36:51;4.40;;;0.82;;
20832;SDS011;56075;51.264;7.150;2023-03-13T14:42:10;5.97;;;0.80;;
20832;SDS011;56075;51.264;7.150;2023-03-13T14:44:44;3.50;;;0.77;;
20832;SDS011;56075;51.264;7.150;2023-03-13T14:47:21;7.25;;;0.77;;
20832;SDS011;56075;51.264;7.150;2023-03-13T14:50:02;5.40;;;0.75;;
20832;SDS011;56075;51.264;7.150;2023-03-13T14:52:46;5.85;;;0.80;;
20832;SDS011;56075;51.264;7.150;2023-03-13T14:57:53;4.00;;;0.68;;
20832;SDS011;56075;51.264;7.150;2023-03-13T15:00:58;6.20;;;0.57;;
20832;SDS011;56075;51.264;7.150;2023-03-13T15:03:27;5.53;;;0.75;;
20832;SDS011;56075;51.264;7.150;2023-03-13T15:08:43;3.33;;;0.80;;
20832;SDS011;56075;51.264;7.150;2023-03-13T15:13:54;1.30;;;0.63;;
20832;SDS011;56075;51.264;7.150;2023-03-13T15:16:26;5.82;;;0.75;;
20832;SDS011;56075;51.264;7.150;2023-03-13T15:18:58;1.17;;;0.70;;
20832;SDS011;56075;51.264;7.150;2023-03-13T15:21:29;2.35;;;0.63;;
20832;SDS011;56075;51.264;7.150;2023-03-13T15:24:09;2.92;;;0.80;;
20832;SDS011;56075;51.264;7.150;2023-03-13T15:26:43;1.95;;;0.65;;
20832;SDS011;56075;51.264;7.150;2023-03-13T15:29:14;1.83;;;0.90;;
20832;SDS011;56075;51.264;7.150;2023-03-13T15:31:47;2.55;;;0.95;;
20832;SDS011;56075;51.264;7.150;2023-03-13T15:34:19;2.08;;;0.80;;
20832;SDS011;56075;51.264;7.150;2023-03-13T15:36:54;4.60;;;0.88;;
20832;SDS011;56075;51.264;7.150;2023-03-13T15:39:25;2.05;;;0.60;;
20832;SDS011;56075;51.264;7.150;2023-03-13T15:41:56;3.55;;;1.00;;
20832;SDS011;56075;51.264;7.150;2023-03-13T15:44:28;2.70;;;0.75;;
20832;SDS011;56075;51.264;7.150;2023-03-13T15:46:59;3.28;;;0.82;;
20832;SDS011;56075;51.264;7.150;2023-03-13T15:49:30;4.07;;;0.70;;
20832;SDS011;56075;51.264;7.150;2023-03-13T15:52:01;3.13;;;0.88;;
20832;SDS011;56075;51.264;7.150;2023-03-13T15:54:33;1.55;;;0.90;;
20832;SDS011;56075;51.264;7.150;2023-03-13T15:57:04;2.50;;;0.73;;
20832;SDS011;56075;51.264;7.150;2023-03-13T15:59:35;1.50;;;0.70;;
20832;SDS011;56075;51.264;7.150;2023-03-13T16:02:12;2.85;;;0.70;;
20832;SDS011;56075;51.264;7.150;2023-03-13T16:04:45;8.90;;;1.17;;
20832;SDS011;56075;51.264;7.150;2023-03-13T16:07:18;3.65;;;0.75;;
20832;SDS011;56075;51.264;7.150;2023-03-13T16:09:50;1.45;;;0.65;;
20832;SDS011;56075;51.264;7.150;2023-03-13T16:12:21;3.83;;;0.85;;
20832;SDS011;56075;51.264;7.150;2023-03-13T16:14:52;3.92;;;0.82;;
20832;SDS011;56075;51.264;7.150;2023-03-13T16:17:24;1.65;;;0.77;;
20832;SDS011;56075;51.264;7.150;2023-03-13T16:19:57;1.20;;;0.60;;
20832;SDS011;56075;51.264;7.150;2023-03-13T16:22:28;2.50;;;1.02;;
20832;SDS011;56075;51.264;7.150;2023-03-13T16:24:59;1.02;;;0.73;;
20832;SDS011;56075;51.264;7.150;2023-03-13T16:27:31;2.40;;;0.80;;
20832;SDS011;56075;51.264;7.150;2023-03-13T16:30:02;1.20;;;0.75;;
20832;SDS011;56075;51.264;7.150;2023-03-13T16:32:36;1.88;;;0.90;;
20832;SDS011;56075;51.264;7.150;2023-03-13T16:35:07;1.20;;;0.90;;
20832;SDS011;56075;51.264;7.150;2023-03-13T16:37:38;1.88;;;0.77;;
20832;SDS011;56075;51.264;7.150;2023-03-13T16:42:51;4.50;;;0.95;;
20832;SDS011;56075;51.264;7.150;2023-03-13T16:45:22;1.85;;;0.93;;
20832;SDS011;56075;51.264;7.150;2023-03-13T16:47:54;3.28;;;1.00;;
20832;SDS011;56075;51.264;7.150;2023-03-13T16:50:32;3.28;;;0.95;;
20832;SDS011;56075;51.264;7.150;2023-03-13T16:53:07;2.35;;;1.00;;
20832;SDS011;56075;51.264;7.150;2023-03-13T16:55:38;1.80;;;0.70;;
20832;SDS011;56075;51.264;7.150;2023-03-13T16:58:09;2.28;;;1.00;;
20832;SDS011;56075;51.264;7.150;2023-03-13T17:00:42;3.03;;;0.98;;
20832;SDS011;56075;51.264;7.150;2023-03-13T17:03:14;2.60;;;0.80;;
20832;SDS011;56075;51.264;7.150;2023-03-13T17:05:45;3.80;;;1.00;;
20832;SDS011;56075;51.264;7.150;2023-03-13T17:08:16;5.03;;;1.00;;
20832;SDS011;56075;51.264;7.150;2023-03-13T17:10:48;3.80;;;0.95;;
20832;SDS011;56075;51.264;7.150;2023-03-13T17:13:19;4.70;;;1.00;;
20832;SDS011;56075;51.264;7.150;2023-03-13T17:15:52;2.42;;;0.90;;
20832;SDS011;56075;51.264;7.150;2023-03-13T17:18:24;2.92;;;0.82;;
20832;SDS011;56075;51.264;7.150;2023-03-13T17:20:55;1.90;;;1.00;;
20832;SDS011;56075;51.264;7.150;2023-03-13T17:23:26;3.05;;;0.77;;
20832;SDS011;56075;51.264;7.150;2023-03-13T17:25:58;4.03;;;1.10;;
20832;SDS011;56075;51.264;7.150;2023-03-13T17:28:29;2.80;;;0.90;;
20832;SDS011;56075;51.264;7.150;2023-03-13T17:31:00;2.60;;;1.20;;
20832;SDS011;56075;51.264;7.150;2023-03-13T17:33:34;3.78;;;1.00;;
20832;SDS011;56075;51.264;7.150;2023-03-13T17:36:27;4.07;;;1.52;;
20832;SDS011;56075;51.264;7.150;2023-03-13T17:38:59;4.95;;;1.05;;